createdAt,value
2019-03-09T00:01:46.386Z,99.90
2019-03-09T00:06:38.504Z,99.90
2019-03-09T00:11:30.583Z,99.90
2019-03-09T00:16:23.327Z,99.90
2019-03-09T00:21:15.042Z,99.90
2019-03-09T00:26:06.738Z,99.90
2019-03-09T00:31:01.981Z,99.90
2019-03-09T00:35:53.290Z,99.90
2019-03-09T00:40:45.042Z,99.90
2019-03-09T00:45:36.764Z,99.90
2019-03-09T00:50:28.514Z,99.90
2019-03-09T00:55:20.634Z,99.90
2019-03-09T01:00:12.351Z,99.90
2019-03-09T01:05:04.502Z,99.90
2019-03-09T01:09:56.521Z,99.90
2019-03-09T01:14:49.030Z,99.90
2019-03-09T01:19:41.293Z,99.90
2019-03-09T01:24:33.262Z,99.90
2019-03-09T01:29:25.287Z,99.90
2019-03-09T01:34:17.326Z,99.90
2019-03-09T01:39:09.945Z,99.90
2019-03-09T01:44:01.779Z,99.90
2019-03-09T01:48:53.994Z,99.90
2019-03-09T01:53:45.988Z,99.90
2019-03-09T01:58:35.550Z,99.90
2019-03-09T02:03:27.533Z,99.90
2019-03-09T02:08:21.125Z,99.90
2019-03-09T02:13:10.898Z,99.90
2019-03-09T02:18:02.533Z,99.90
2019-03-09T02:22:54.479Z,99.90
2019-03-09T02:27:46.559Z,99.90
2019-03-09T02:32:38.495Z,99.90
2019-03-09T02:37:30.017Z,99.90
2019-03-09T02:42:22.003Z,99.90
2019-03-09T02:47:13.195Z,99.90
2019-03-09T02:52:04.997Z,99.90
2019-03-09T02:56:56.447Z,99.90
2019-03-09T03:01:48.381Z,99.90
2019-03-09T03:06:38.721Z,99.90
2019-03-09T03:11:31.052Z,99.90
2019-03-09T03:16:21.386Z,99.90
2019-03-09T03:21:13.349Z,99.90
2019-03-09T03:26:05.558Z,99.90
2019-03-09T03:30:57.853Z,99.90
2019-03-09T03:35:49.777Z,99.90
2019-03-09T03:40:41.806Z,99.90
2019-03-09T03:45:33.687Z,99.90
2019-03-09T03:50:25.776Z,99.90
2019-03-09T03:55:18.054Z,99.90
2019-03-09T04:00:10.164Z,99.90
2019-03-09T04:05:02.082Z,99.90
2019-03-09T04:09:54.223Z,99.90
2019-03-09T04:14:46.370Z,99.90
2019-03-09T04:19:38.354Z,99.90
2019-03-09T04:24:30.455Z,99.90
2019-03-09T04:29:22.566Z,99.90
2019-03-09T04:34:12.673Z,99.90
2019-03-09T04:39:04.475Z,99.90
2019-03-09T04:43:56.519Z,99.90
2019-03-09T04:48:48.274Z,99.90
2019-03-09T04:53:40.447Z,99.90
2019-03-09T04:58:32.242Z,99.90
2019-03-09T05:03:24.325Z,99.90
2019-03-09T05:08:16.227Z,99.90
2019-03-09T05:13:08.514Z,99.90
2019-03-09T05:17:58.755Z,99.90
2019-03-09T05:22:50.145Z,99.90
2019-03-09T05:27:40.223Z,99.90
2019-03-09T05:32:32.450Z,99.90
2019-03-09T05:37:22.668Z,99.90
2019-03-09T05:42:14.998Z,99.90
2019-03-09T05:47:05.382Z,99.90
2019-03-09T05:51:56.484Z,99.90
2019-03-09T05:56:46.349Z,99.90
2019-03-09T06:01:36.020Z,99.90
2019-03-09T06:06:26.053Z,99.90
2019-03-09T06:11:15.856Z,99.90
2019-03-09T06:16:06.210Z,99.90
2019-03-09T06:20:55.980Z,99.90
2019-03-09T06:25:47.542Z,99.90
2019-03-09T06:30:37.089Z,99.90
2019-03-09T06:35:26.835Z,99.90
2019-03-09T06:40:16.910Z,99.90
2019-03-09T06:45:06.875Z,99.90
2019-03-09T06:49:58.478Z,99.90
2019-03-09T06:54:50.262Z,99.90
2019-03-09T06:59:40.681Z,99.90
2019-03-09T07:04:32.773Z,99.90
2019-03-09T07:09:26.303Z,99.90
2019-03-09T07:14:19.075Z,99.90
2019-03-09T07:19:08.331Z,99.90
2019-03-09T07:23:58.265Z,99.90
2019-03-09T07:28:48.144Z,99.90
2019-03-09T07:33:38.553Z,99.90
2019-03-09T07:38:28.158Z,99.90
2019-03-09T07:43:17.943Z,99.90
2019-03-09T07:48:07.388Z,99.90
2019-03-09T07:52:59.459Z,99.90
2019-03-09T07:57:51.672Z,99.90
2019-03-09T08:02:41.775Z,99.90
2019-03-09T08:07:32.128Z,99.90
2019-03-09T08:12:25.449Z,99.90
2019-03-09T08:17:15.587Z,99.90
2019-03-09T08:22:06.193Z,99.90
2019-03-09T08:26:58.512Z,99.90
2019-03-09T08:31:50.754Z,99.90
2019-03-09T08:36:44.590Z,99.90
2019-03-09T08:41:36.178Z,99.90
2019-03-09T08:46:27.633Z,99.90
2019-03-09T08:51:18.380Z,99.90
2019-03-09T08:56:10.205Z,99.90
2019-03-09T09:00:59.691Z,99.90
2019-03-09T09:05:51.005Z,99.90
2019-03-09T09:10:42.994Z,99.90
2019-03-09T09:15:34.565Z,99.90
2019-03-09T09:20:26.795Z,99.90
2019-03-09T09:25:21.068Z,99.90
2019-03-09T09:30:12.905Z,99.90
2019-03-09T09:35:04.521Z,99.90
2019-03-09T09:39:56.642Z,99.90
2019-03-09T09:44:48.895Z,99.90
2019-03-09T09:49:41.323Z,99.90
2019-03-09T09:54:33.229Z,99.90
2019-03-09T09:59:27.758Z,99.90
2019-03-09T10:04:19.620Z,99.90
2019-03-09T10:09:11.759Z,99.90
2019-03-09T10:14:03.827Z,99.90
2019-03-09T10:18:55.865Z,99.90
2019-03-09T10:23:48.011Z,99.90
2019-03-09T10:28:39.915Z,99.90
2019-03-09T10:33:31.742Z,99.90
2019-03-09T10:38:23.607Z,99.90
2019-03-09T10:43:15.464Z,99.90
2019-03-09T10:48:07.706Z,99.90
2019-03-09T10:52:59.808Z,99.90
2019-03-09T10:57:52.129Z,99.90
2019-03-09T11:02:44.305Z,99.90
2019-03-09T11:07:36.483Z,99.90
2019-03-09T11:12:28.506Z,99.90
2019-03-09T11:17:23.022Z,99.90
2019-03-09T11:22:14.944Z,99.90
2019-03-09T11:27:08.037Z,99.90
2019-03-09T11:32:00.034Z,99.90
2019-03-09T11:36:52.200Z,99.90
2019-03-09T11:41:44.207Z,99.90
2019-03-09T11:46:38.495Z,99.90
2019-03-09T11:51:30.421Z,99.90
2019-03-09T11:56:22.801Z,99.90
2019-03-09T12:01:15.047Z,99.00
2019-03-09T12:06:07.544Z,98.60
2019-03-09T12:10:59.791Z,97.20
2019-03-09T12:15:52.369Z,94.80
2019-03-09T12:20:44.905Z,94.10
2019-03-09T12:25:37.175Z,91.60
2019-03-09T12:30:30.840Z,91.10
2019-03-09T12:35:22.790Z,91.40
2019-03-09T12:40:14.992Z,90.40
2019-03-09T12:45:07.199Z,87.70
2019-03-09T12:49:58.951Z,89.50
2019-03-09T12:54:50.785Z,90.30
2019-03-09T12:59:42.880Z,91.40
2019-03-09T13:04:34.831Z,91.60
2019-03-09T13:09:27.021Z,91.90
2019-03-09T13:14:19.181Z,92.60
2019-03-09T13:19:11.140Z,90.80
2019-03-09T13:24:03.589Z,91.50
2019-03-09T13:28:56.602Z,92.20
2019-03-09T13:33:48.309Z,94.50
2019-03-09T13:38:40.139Z,94.50
2019-03-09T13:43:31.438Z,99.90
2019-03-09T13:48:22.919Z,99.90
2019-03-09T13:53:14.923Z,99.90
2019-03-09T13:58:07.330Z,99.90
2019-03-09T14:02:59.502Z,99.90
2019-03-09T14:07:52.026Z,99.90
2019-03-09T14:12:44.705Z,99.90
2019-03-09T14:17:36.897Z,99.90
2019-03-09T14:22:29.028Z,99.90
2019-03-09T14:27:21.450Z,99.90
2019-03-09T14:32:12.973Z,99.90
2019-03-09T14:37:04.649Z,99.90
2019-03-09T14:41:56.458Z,99.90
2019-03-09T14:46:48.689Z,99.90
2019-03-09T14:51:40.521Z,99.90
2019-03-09T14:56:32.717Z,99.90
2019-03-09T15:01:24.869Z,99.90
2019-03-09T15:06:17.156Z,99.90
2019-03-09T15:11:09.157Z,99.90
2019-03-09T15:16:02.617Z,99.90
2019-03-09T15:20:54.192Z,99.90
2019-03-09T15:25:46.180Z,99.90
2019-03-09T15:30:40.223Z,99.90
2019-03-09T15:35:31.815Z,99.90
2019-03-09T15:40:23.745Z,99.90
2019-03-09T15:45:15.565Z,99.90
2019-03-09T15:50:06.892Z,99.90
2019-03-09T15:54:58.779Z,99.90
2019-03-09T15:59:50.690Z,99.90
2019-03-09T16:04:43.674Z,99.90
2019-03-09T16:09:35.611Z,99.90
2019-03-09T16:14:27.545Z,99.90
2019-03-09T16:19:20.943Z,99.90
2019-03-09T16:24:12.078Z,99.90
2019-03-09T16:29:03.851Z,99.90
2019-03-09T16:33:55.379Z,99.90
2019-03-09T16:38:47.224Z,99.90
2019-03-09T16:43:39.138Z,99.90
2019-03-09T16:48:30.954Z,99.90
2019-03-09T16:53:22.968Z,99.90
2019-03-09T16:58:14.899Z,99.90
2019-03-09T17:03:06.957Z,99.90
2019-03-09T17:07:59.066Z,99.90
2019-03-09T17:12:51.156Z,99.90
2019-03-09T17:17:43.183Z,99.90
2019-03-09T17:22:35.320Z,99.90
2019-03-09T17:27:27.643Z,99.90
2019-03-09T17:32:27.022Z,99.90
2019-03-09T17:37:17.296Z,99.90
2019-03-09T17:42:09.373Z,99.90
2019-03-09T17:47:01.262Z,99.90
2019-03-09T17:51:55.154Z,99.90
2019-03-09T17:56:48.855Z,99.90
2019-03-09T18:01:40.638Z,99.90
2019-03-09T18:06:32.535Z,99.90
2019-03-09T18:11:24.613Z,99.90
2019-03-09T18:16:16.596Z,99.90
2019-03-09T18:21:08.814Z,99.90
2019-03-09T18:26:00.578Z,99.90
2019-03-09T18:30:52.550Z,99.90
2019-03-09T18:35:44.713Z,99.90
2019-03-09T18:40:36.895Z,99.90
2019-03-09T18:45:28.552Z,99.90
2019-03-09T18:50:20.453Z,99.90
2019-03-09T18:55:12.498Z,99.90
2019-03-09T19:00:04.468Z,99.90
2019-03-09T19:04:56.320Z,99.90
2019-03-09T19:09:48.566Z,99.90
2019-03-09T19:14:42.622Z,99.90
2019-03-09T19:19:35.021Z,99.90
2019-03-09T19:24:26.575Z,99.90
2019-03-09T19:29:18.701Z,99.90
2019-03-09T19:34:14.876Z,99.90
2019-03-09T19:39:06.537Z,99.90
2019-03-09T19:43:58.550Z,99.90
2019-03-09T19:48:51.134Z,99.90
2019-03-09T19:53:42.817Z,99.90
2019-03-09T19:58:34.888Z,99.90
2019-03-09T20:03:28.044Z,99.90
2019-03-09T20:08:19.938Z,99.90
2019-03-09T20:13:12.068Z,99.90
2019-03-09T20:18:03.801Z,99.90
2019-03-09T20:22:55.948Z,99.90
2019-03-09T20:27:48.142Z,99.90
2019-03-09T20:32:40.340Z,99.90
2019-03-09T20:37:32.266Z,99.90
2019-03-09T20:42:24.137Z,99.90
2019-03-09T20:47:16.194Z,99.90
2019-03-09T20:52:08.497Z,99.90
2019-03-09T20:57:00.627Z,99.90
2019-03-09T21:01:53.428Z,99.90
2019-03-09T21:06:45.350Z,99.90
2019-03-09T21:11:37.518Z,99.90
2019-03-09T21:16:30.390Z,99.40
2019-03-09T21:21:22.509Z,98.70
2019-03-09T21:26:14.650Z,98.50
2019-03-09T21:31:06.685Z,98.00
2019-03-09T21:35:59.289Z,97.50
2019-03-09T21:40:51.135Z,97.00
2019-03-09T21:45:43.139Z,97.10
2019-03-09T21:50:35.532Z,96.80
2019-03-09T21:55:27.745Z,96.60
2019-03-09T22:00:19.821Z,96.40
2019-03-09T22:05:11.900Z,96.50
2019-03-09T22:10:04.086Z,96.70
2019-03-09T22:14:56.084Z,96.90
2019-03-09T22:19:48.335Z,96.60
2019-03-09T22:24:40.411Z,96.20
2019-03-09T22:29:32.405Z,96.30
2019-03-09T22:34:24.665Z,96.20
2019-03-09T22:39:16.562Z,96.00
2019-03-09T22:44:08.626Z,95.90
2019-03-09T22:49:00.930Z,95.90
2019-03-09T22:53:52.915Z,95.80
2019-03-09T22:58:45.450Z,96.10
2019-03-09T23:03:37.765Z,96.30
2019-03-09T23:08:30.042Z,96.10
2019-03-09T23:13:22.267Z,96.00
2019-03-09T23:18:14.881Z,96.20
2019-03-09T23:23:07.357Z,96.60
2019-03-09T23:27:59.173Z,97.10
2019-03-09T23:32:51.115Z,98.00
2019-03-09T23:37:45.248Z,99.20
2019-03-09T23:42:37.617Z,99.70
2019-03-09T23:47:32.568Z,99.90
2019-03-09T23:52:26.363Z,99.90
2019-03-09T23:57:18.144Z,99.90
